EZY45ZD EGJJ-EGKK
Flight info
| Callsign | EZY45ZD |
|---|---|
| Flight time | 0h 32m |
| Altitude | 23000 |
| Route | ORIST L982 VASUX |
| Aircraft | A320/M-SDE3FGHIRWY/LB1 |
Departure
| Time | 2026-05-03 23:45 |
|---|---|
| Airport | Jersey Airport (EGJJ) |
Arrival
| Time | 2026-05-04 00:18 |
|---|---|
| Airport | London Gatwick Airport (EGKK) |
| Time | Latitude | Longitude | Altitude | Speed | Heading |
|---|---|---|---|---|---|
| 2026-05-03 23:05 | 49.20501 | -2.19676 | 284 ft | 0 kts | 5° |
| 2026-05-03 23:17 | 49.20500 | -2.19676 | 284 ft | 0 kts | 5° |
| 2026-05-03 23:35 | 49.20499 | -2.19677 | 284 ft | 2 kts | 4° |
| 2026-05-03 23:35 | 49.20482 | -2.19677 | 284 ft | 2 kts | 356° |
| 2026-05-03 23:35 | 49.20466 | -2.19674 | 284 ft | 2 kts | 342° |
| 2026-05-03 23:35 | 49.20451 | -2.19664 | 287 ft | 2 kts | 317° |
| 2026-05-03 23:36 | 49.20440 | -2.19645 | 289 ft | 2 kts | 291° |
| 2026-05-03 23:36 | 49.20436 | -2.19625 | 291 ft | 1 kts | 283° |
| 2026-05-03 23:36 | 49.20436 | -2.19621 | 291 ft | 0 kts | 284° |
| 2026-05-03 23:38 | 49.20436 | -2.19622 | 284 ft | 1 kts | 284° |
| 2026-05-03 23:38 | 49.20441 | -2.19654 | 284 ft | 3 kts | 284° |
| 2026-05-03 23:39 | 49.20443 | -2.19692 | 284 ft | 7 kts | 269° |
| 2026-05-03 23:39 | 49.20439 | -2.19764 | 284 ft | 8 kts | 265° |
| 2026-05-03 23:39 | 49.20433 | -2.19868 | 284 ft | 7 kts | 264° |
| 2026-05-03 23:39 | 49.20451 | -2.19914 | 288 ft | 4 kts | 336° |
| 2026-05-03 23:40 | 49.20498 | -2.19925 | 284 ft | 11 kts | 354° |
| 2026-05-03 23:40 | 49.20573 | -2.19935 | 284 ft | 11 kts | 2° |
| 2026-05-03 23:40 | 49.20605 | -2.19852 | 286 ft | 10 kts | 82° |
| 2026-05-03 23:40 | 49.20613 | -2.19755 | 284 ft | 9 kts | 84° |
| 2026-05-03 23:41 | 49.20650 | -2.19663 | 284 ft | 11 kts | 33° |
| 2026-05-03 23:41 | 49.20692 | -2.19582 | 284 ft | 9 kts | 73° |
| 2026-05-03 23:41 | 49.20703 | -2.19494 | 284 ft | 8 kts | 80° |
| 2026-05-03 23:41 | 49.20710 | -2.19416 | 284 ft | 9 kts | 88° |
| 2026-05-03 23:42 | 49.20696 | -2.19299 | 284 ft | 11 kts | 105° |
| 2026-05-03 23:42 | 49.20678 | -2.19177 | 284 ft | 13 kts | 90° |
| 2026-05-03 23:42 | 49.20688 | -2.19052 | 284 ft | 12 kts | 83° |
| 2026-05-03 23:42 | 49.20700 | -2.18913 | 284 ft | 13 kts | 83° |
| 2026-05-03 23:43 | 49.20710 | -2.18790 | 284 ft | 11 kts | 82° |
| 2026-05-03 23:43 | 49.20721 | -2.18660 | 288 ft | 15 kts | 83° |
| 2026-05-03 23:43 | 49.20734 | -2.18495 | 284 ft | 15 kts | 84° |
| 2026-05-03 23:43 | 49.20774 | -2.18411 | 284 ft | 8 kts | 39° |
| 2026-05-03 23:44 | 49.20808 | -2.18379 | 288 ft | 5 kts | 24° |
| 2026-05-03 23:44 | 49.20839 | -2.18372 | 283 ft | 4 kts | 359° |
| 2026-05-03 23:44 | 49.20887 | -2.18404 | 283 ft | 9 kts | 306° |
| 2026-05-03 23:44 | 49.20890 | -2.18463 | 281 ft | 0 kts | 263° |
| 2026-05-03 23:45 | 49.20863 | -2.18805 | 285 ft | 76 kts | 262° |
| 2026-05-03 23:45 | 49.20760 | -2.20025 | 294 ft | 151 kts | 263° |
| 2026-05-03 23:45 | 49.20624 | -2.21704 | 931 ft | 163 kts | 263° |
| 2026-05-03 23:46 | 49.20479 | -2.23446 | 1770 ft | 167 kts | 262° |
| 2026-05-03 23:46 | 49.20323 | -2.25266 | 2158 ft | 185 kts | 262° |
| 2026-05-03 23:46 | 49.20145 | -2.27327 | 2456 ft | 206 kts | 262° |
| 2026-05-03 23:46 | 49.19957 | -2.29551 | 2995 ft | 214 kts | 263° |
| 2026-05-03 23:47 | 49.20170 | -2.31803 | 3715 ft | 221 kts | 297° |
| 2026-05-03 23:47 | 49.21309 | -2.33389 | 4482 ft | 230 kts | 338° |
| 2026-05-03 23:47 | 49.22912 | -2.33608 | 5224 ft | 236 kts | 5° |
| 2026-05-03 23:47 | 49.24549 | -2.33236 | 6006 ft | 240 kts | 9° |
| 2026-05-03 23:48 | 49.26198 | -2.32729 | 6748 ft | 244 kts | 11° |
| 2026-05-03 23:48 | 49.27931 | -2.32173 | 7140 ft | 266 kts | 11° |
| 2026-05-03 23:48 | 49.29823 | -2.31585 | 7536 ft | 287 kts | 10° |
| 2026-05-03 23:48 | 49.31816 | -2.30986 | 8248 ft | 295 kts | 9° |
| 2026-05-03 23:49 | 49.33853 | -2.30389 | 9059 ft | 300 kts | 9° |
| 2026-05-03 23:49 | 49.35926 | -2.29798 | 9871 ft | 305 kts | 9° |
| 2026-05-03 23:49 | 49.38032 | -2.29205 | 10614 ft | 310 kts | 9° |
| 2026-05-03 23:49 | 49.40164 | -2.28604 | 11368 ft | 313 kts | 9° |
| 2026-05-03 23:50 | 49.42321 | -2.28000 | 12134 ft | 317 kts | 9° |
| 2026-05-03 23:50 | 49.43762 | -2.27596 | 12641 ft | 319 kts | 9° |
| 2026-05-03 23:50 | 49.46710 | -2.26772 | 13659 ft | 324 kts | 9° |
| 2026-05-03 23:50 | 49.48942 | -2.26154 | 14335 ft | 327 kts | 9° |
| 2026-05-03 23:51 | 49.51195 | -2.25526 | 14995 ft | 331 kts | 9° |
| 2026-05-03 23:51 | 49.53470 | -2.24887 | 15657 ft | 334 kts | 9° |
| 2026-05-03 23:51 | 49.54986 | -2.24462 | 16083 ft | 336 kts | 9° |
| 2026-05-03 23:51 | 49.57304 | -2.23815 | 16731 ft | 340 kts | 9° |
| 2026-05-03 23:52 | 49.59644 | -2.23161 | 17373 ft | 343 kts | 9° |
| 2026-05-03 23:52 | 49.62007 | -2.22497 | 18019 ft | 347 kts | 9° |
| 2026-05-03 23:52 | 49.65178 | -2.21598 | 18773 ft | 352 kts | 9° |
| 2026-05-03 23:52 | 49.66807 | -2.21137 | 19147 ft | 354 kts | 9° |
| 2026-05-03 23:53 | 49.69996 | -2.19955 | 19866 ft | 359 kts | 20° |
| 2026-05-03 23:53 | 49.71540 | -2.18881 | 20176 ft | 364 kts | 28° |
| 2026-05-03 23:53 | 49.73683 | -2.16653 | 20307 ft | 380 kts | 39° |
| 2026-05-03 23:53 | 49.75798 | -2.14061 | 20434 ft | 395 kts | 39° |
| 2026-05-03 23:54 | 49.77995 | -2.11370 | 20570 ft | 410 kts | 39° |
| 2026-05-03 23:54 | 49.80237 | -2.08634 | 20831 ft | 419 kts | 39° |
| 2026-05-03 23:54 | 49.82548 | -2.05824 | 21277 ft | 424 kts | 39° |
| 2026-05-03 23:54 | 49.84875 | -2.02993 | 21749 ft | 427 kts | 39° |
| 2026-05-03 23:55 | 49.87219 | -2.00141 | 22225 ft | 430 kts | 38° |
| 2026-05-03 23:55 | 49.89581 | -1.97266 | 22699 ft | 433 kts | 38° |
| 2026-05-03 23:55 | 49.91954 | -1.94376 | 22925 ft | 435 kts | 38° |
| 2026-05-03 23:55 | 49.94343 | -1.91460 | 22979 ft | 437 kts | 39° |
| 2026-05-03 23:56 | 49.96730 | -1.88535 | 22971 ft | 438 kts | 38° |
| 2026-05-03 23:56 | 49.99131 | -1.85626 | 22970 ft | 438 kts | 36° |
| 2026-05-03 23:56 | 50.01722 | -1.83146 | 22974 ft | 437 kts | 27° |
| 2026-05-03 23:56 | 50.04434 | -1.81003 | 22972 ft | 438 kts | 26° |
| 2026-05-03 23:57 | 50.07152 | -1.78855 | 22970 ft | 438 kts | 26° |
| 2026-05-03 23:57 | 50.09867 | -1.76708 | 22975 ft | 438 kts | 26° |
| 2026-05-03 23:57 | 50.12508 | -1.74354 | 22973 ft | 438 kts | 34° |
| 2026-05-03 23:57 | 50.14910 | -1.71437 | 22972 ft | 437 kts | 40° |
| 2026-05-03 23:58 | 50.17244 | -1.68400 | 22971 ft | 437 kts | 40° |
| 2026-05-03 23:58 | 50.19588 | -1.65365 | 22971 ft | 437 kts | 40° |
| 2026-05-03 23:58 | 50.21897 | -1.62377 | 22969 ft | 437 kts | 40° |
| 2026-05-03 23:58 | 50.24237 | -1.59338 | 22965 ft | 437 kts | 40° |
| 2026-05-03 23:59 | 50.26569 | -1.56302 | 22965 ft | 437 kts | 40° |
| 2026-05-03 23:59 | 50.28907 | -1.53263 | 22958 ft | 437 kts | 40° |
| 2026-05-03 23:59 | 50.31247 | -1.50230 | 22957 ft | 437 kts | 40° |
| 2026-05-03 23:59 | 50.33585 | -1.47202 | 22958 ft | 437 kts | 40° |
| 2026-05-04 00:00 | 50.35903 | -1.44201 | 22710 ft | 428 kts | 40° |
| 2026-05-04 00:00 | 50.38179 | -1.41250 | 22397 ft | 421 kts | 40° |
| 2026-05-04 00:00 | 50.40421 | -1.38340 | 21900 ft | 416 kts | 40° |
| 2026-05-04 00:00 | 50.42637 | -1.35456 | 21403 ft | 412 kts | 40° |
| 2026-05-04 00:01 | 50.44825 | -1.32599 | 20932 ft | 408 kts | 40° |
| 2026-05-04 00:01 | 50.46997 | -1.29760 | 20455 ft | 404 kts | 40° |
| 2026-05-04 00:01 | 50.49149 | -1.26941 | 19994 ft | 401 kts | 40° |
| 2026-05-04 00:01 | 50.51282 | -1.24142 | 19533 ft | 398 kts | 40° |
| 2026-05-04 00:02 | 50.53400 | -1.21360 | 19062 ft | 396 kts | 40° |
| 2026-05-04 00:02 | 50.55511 | -1.18588 | 18590 ft | 394 kts | 40° |
| 2026-05-04 00:02 | 50.57609 | -1.15828 | 18082 ft | 393 kts | 40° |
| 2026-05-04 00:02 | 50.59698 | -1.13073 | 17573 ft | 390 kts | 40° |
| 2026-05-04 00:03 | 50.61770 | -1.10337 | 17100 ft | 388 kts | 40° |
| 2026-05-04 00:03 | 50.63829 | -1.07620 | 16612 ft | 385 kts | 40° |
| 2026-05-04 00:03 | 50.65841 | -1.04839 | 16126 ft | 382 kts | 46° |
| 2026-05-04 00:03 | 50.67573 | -1.01685 | 15659 ft | 380 kts | 51° |
| 2026-05-04 00:04 | 50.69242 | -0.98472 | 15179 ft | 378 kts | 51° |
| 2026-05-04 00:04 | 50.70900 | -0.95279 | 14707 ft | 376 kts | 51° |
| 2026-05-04 00:04 | 50.72553 | -0.92090 | 14228 ft | 374 kts | 51° |
| 2026-05-04 00:04 | 50.74195 | -0.88915 | 13759 ft | 372 kts | 51° |
| 2026-05-04 00:05 | 50.75824 | -0.85764 | 13390 ft | 365 kts | 51° |
| 2026-05-04 00:05 | 50.77373 | -0.82765 | 13245 ft | 341 kts | 52° |
| 2026-05-04 00:05 | 50.78847 | -0.79906 | 13118 ft | 330 kts | 52° |
| 2026-05-04 00:05 | 50.80220 | -0.77065 | 12963 ft | 320 kts | 59° |
| 2026-05-04 00:06 | 50.81180 | -0.73946 | 12764 ft | 313 kts | 72° |
| 2026-05-04 00:06 | 50.81692 | -0.70622 | 12436 ft | 310 kts | 82° |
| 2026-05-04 00:06 | 50.82078 | -0.67276 | 12089 ft | 309 kts | 81° |
| 2026-05-04 00:06 | 50.82464 | -0.63943 | 11740 ft | 307 kts | 81° |
| 2026-05-04 00:07 | 50.82851 | -0.60626 | 11395 ft | 306 kts | 81° |
| 2026-05-04 00:07 | 50.83215 | -0.57529 | 11067 ft | 305 kts | 81° |
| 2026-05-04 00:07 | 50.83547 | -0.54686 | 10769 ft | 304 kts | 81° |
| 2026-05-04 00:07 | 50.83928 | -0.51408 | 10424 ft | 303 kts | 81° |
| 2026-05-04 00:08 | 50.84303 | -0.48141 | 10084 ft | 301 kts | 81° |
| 2026-05-04 00:08 | 50.84674 | -0.44887 | 9738 ft | 300 kts | 81° |
| 2026-05-04 00:08 | 50.85042 | -0.41647 | 9378 ft | 298 kts | 81° |
| 2026-05-04 00:08 | 50.85408 | -0.38430 | 9038 ft | 296 kts | 81° |
| 2026-05-04 00:09 | 50.85774 | -0.35233 | 8691 ft | 294 kts | 81° |
| 2026-05-04 00:09 | 50.86131 | -0.32102 | 8384 ft | 292 kts | 81° |
| 2026-05-04 00:09 | 50.86489 | -0.28949 | 8049 ft | 290 kts | 81° |
| 2026-05-04 00:09 | 50.86844 | -0.25811 | 7719 ft | 289 kts | 81° |
| 2026-05-04 00:10 | 50.87195 | -0.22698 | 7396 ft | 287 kts | 81° |
| 2026-05-04 00:10 | 50.87543 | -0.19599 | 7073 ft | 285 kts | 81° |
| 2026-05-04 00:10 | 50.87885 | -0.16525 | 6832 ft | 279 kts | 81° |
| 2026-05-04 00:10 | 50.88215 | -0.13566 | 6709 ft | 268 kts | 81° |
| 2026-05-04 00:11 | 50.88534 | -0.10715 | 6580 ft | 257 kts | 81° |
| 2026-05-04 00:11 | 50.89073 | -0.08069 | 6356 ft | 252 kts | 54° |
| 2026-05-04 00:11 | 50.90416 | -0.06391 | 6136 ft | 248 kts | 20° |
| 2026-05-04 00:11 | 50.92079 | -0.05689 | 5849 ft | 248 kts | 8° |
| 2026-05-04 00:12 | 50.93784 | -0.05344 | 5558 ft | 247 kts | 4° |
| 2026-05-04 00:12 | 50.95493 | -0.05095 | 5261 ft | 246 kts | 4° |
| 2026-05-04 00:12 | 50.97192 | -0.04840 | 4964 ft | 245 kts | 4° |
| 2026-05-04 00:12 | 50.98884 | -0.04547 | 4667 ft | 244 kts | 5° |
| 2026-05-04 00:13 | 51.00573 | -0.04217 | 4363 ft | 243 kts | 6° |
| 2026-05-04 00:13 | 51.02248 | -0.03866 | 4064 ft | 242 kts | 6° |
| 2026-05-04 00:13 | 51.03917 | -0.03500 | 3774 ft | 241 kts | 6° |
| 2026-05-04 00:13 | 51.05574 | -0.03127 | 3484 ft | 240 kts | 7° |
| 2026-05-04 00:14 | 51.07226 | -0.02750 | 3195 ft | 240 kts | 7° |
| 2026-05-04 00:14 | 51.08872 | -0.02371 | 2900 ft | 238 kts | 6° |
| 2026-05-04 00:14 | 51.10502 | -0.01993 | 2604 ft | 236 kts | 7° |
| 2026-05-04 00:14 | 51.12080 | -0.01626 | 2477 ft | 220 kts | 7° |
| 2026-05-04 00:15 | 51.13545 | -0.01286 | 2405 ft | 207 kts | 6° |
| 2026-05-04 00:15 | 51.14945 | -0.01404 | 2323 ft | 199 kts | 337° |
| 2026-05-04 00:15 | 51.16013 | -0.02598 | 2260 ft | 178 kts | 306° |
| 2026-05-04 00:15 | 51.16520 | -0.04310 | 2045 ft | 167 kts | 281° |
| 2026-05-04 00:16 | 51.16578 | -0.06054 | 2017 ft | 151 kts | 263° |
| 2026-05-04 00:16 | 51.16369 | -0.07672 | 1947 ft | 149 kts | 257° |
| 2026-05-04 00:16 | 51.16133 | -0.09330 | 1486 ft | 156 kts | 258° |
| 2026-05-04 00:16 | 51.15922 | -0.11017 | 1082 ft | 158 kts | 259° |
| 2026-05-04 00:17 | 51.15704 | -0.12652 | 787 ft | 154 kts | 257° |
| 2026-05-04 00:17 | 51.15469 | -0.14279 | 603 ft | 149 kts | 256° |
| 2026-05-04 00:17 | 51.15254 | -0.15871 | 386 ft | 146 kts | 256° |
| 2026-05-04 00:17 | 51.15034 | -0.17441 | 233 ft | 145 kts | 256° |
| 2026-05-04 00:18 | 51.14837 | -0.18867 | 215 ft | 111 kts | 257° |
| 2026-05-04 00:18 | 51.14732 | -0.19645 | 208 ft | 41 kts | 257° |
| 2026-05-04 00:18 | 51.14705 | -0.19997 | 208 ft | 30 kts | 275° |
| 2026-05-04 00:18 | 51.14734 | -0.20216 | 208 ft | 17 kts | 281° |
| 2026-05-04 00:19 | 51.14755 | -0.20368 | 209 ft | 12 kts | 283° |
| 2026-05-04 00:19 | 51.14812 | -0.20413 | 204 ft | 8 kts | 44° |
| 2026-05-04 00:19 | 51.14823 | -0.20307 | 203 ft | 13 kts | 79° |
| 2026-05-04 00:19 | 51.14845 | -0.20143 | 211 ft | 15 kts | 77° |
| 2026-05-04 00:20 | 51.14866 | -0.19993 | 205 ft | 13 kts | 77° |
| 2026-05-04 00:20 | 51.14885 | -0.19860 | 207 ft | 14 kts | 78° |
| 2026-05-04 00:20 | 51.14910 | -0.19679 | 209 ft | 22 kts | 77° |
| 2026-05-04 00:20 | 51.14945 | -0.19417 | 216 ft | 25 kts | 78° |
| 2026-05-04 00:21 | 51.14983 | -0.19139 | 208 ft | 27 kts | 78° |
| 2026-05-04 00:21 | 51.15026 | -0.18832 | 205 ft | 29 kts | 78° |
| 2026-05-04 00:21 | 51.15066 | -0.18541 | 204 ft | 24 kts | 76° |
| 2026-05-04 00:21 | 51.15102 | -0.18291 | 211 ft | 23 kts | 77° |
| 2026-05-04 00:22 | 51.15135 | -0.18044 | 205 ft | 23 kts | 78° |
| 2026-05-04 00:22 | 51.15164 | -0.17832 | 209 ft | 20 kts | 78° |
| 2026-05-04 00:22 | 51.15196 | -0.17601 | 205 ft | 20 kts | 77° |
| 2026-05-04 00:22 | 51.15220 | -0.17432 | 210 ft | 9 kts | 77° |
| 2026-05-04 00:23 | 51.15251 | -0.17347 | 212 ft | 13 kts | 24° |
| 2026-05-04 00:23 | 51.15336 | -0.17368 | 205 ft | 11 kts | 348° |
| 2026-05-04 00:23 | 51.15408 | -0.17394 | 205 ft | 10 kts | 347° |
| 2026-05-04 00:23 | 51.15472 | -0.17417 | 205 ft | 9 kts | 347° |
| 2026-05-04 00:24 | 51.15532 | -0.17450 | 208 ft | 9 kts | 316° |
| 2026-05-04 00:24 | 51.15536 | -0.17528 | 209 ft | 4 kts | 257° |
| 2026-05-04 00:24 | 51.15526 | -0.17553 | 214 ft | 2 kts | 206° |
| 2026-05-04 00:24 | 51.15486 | -0.17539 | 213 ft | 4 kts | 166° |
| 2026-05-04 00:25 | 51.15465 | -0.17531 | 207 ft | 3 kts | 167° |
| 2026-05-04 00:25 | 51.15454 | -0.17527 | 207 ft | 1 kts | 167° |
| 2026-05-04 00:25 | 51.15452 | -0.17526 | 208 ft | 0 kts | 167° |